Time;durP1;ratioP1;P1;durP2;ratioP2;P2;SDS_P1;SDS_P2;PMS_P1;PMS_P2;Temp;Humidity;BMP_temperature;BMP_pressure;BME280_temperature;BME280_humidity;BME280_pressure;Samples;Min_cycle;Max_cycle;Signal;HPM_P1;HPM_P2
2022/01/03 00:01:45;;;;;;;19.58;3.53;;;12.40;84.10;;;;;;5050816;28;20055;-82
2022/01/03 00:04:32;;;;;;;16.30;3.22;;;12.50;84.10;;;;;;5054883;28;20053;-80
2022/01/03 00:06:59;;;;;;;6.13;1.35;;;12.50;84.40;;;;;;5055001;28;20067;-81
2022/01/03 00:09:25;;;;;;;18.15;3.22;;;12.40;84.40;;;;;;5044509;28;20038;-82
2022/01/03 00:11:51;;;;;;;23.60;3.47;;;12.50;84.40;;;;;;5036237;28;20468;-81
2022/01/03 00:14:17;;;;;;;16.25;2.78;;;12.40;84.40;;;;;;5034959;28;20099;-81
2022/01/03 00:16:43;;;;;;;19.70;3.05;;;12.50;84.60;;;;;;5036007;28;20087;-81
2022/01/03 00:19:09;;;;;;;13.90;2.30;;;12.50;84.40;;;;;;5035476;28;20101;-81
2022/01/03 00:21:50;;;;;;;15.40;2.90;;;12.40;84.60;;;;;;5039312;28;20488;-81
2022/01/03 00:24:24;;;;;;;17.17;2.55;;;12.40;84.80;;;;;;5037549;28;20049;-81
2022/01/03 00:27:16;;;;;;;10.88;2.63;;;12.40;84.70;;;;;;5038646;28;20472;-82
2022/01/03 00:29:50;;;;;;;16.67;3.33;;;12.50;84.60;;;;;;5039239;28;20069;-81
2022/01/03 00:32:16;;;;;;;18.10;2.97;;;12.50;84.80;;;;;;5053020;28;20517;-82
2022/01/03 00:34:44;;;;;;;14.98;3.35;;;12.50;84.80;;;;;;5051239;28;20040;-81
2022/01/03 00:37:10;;;;;;;15.45;2.80;;;12.50;84.80;;;;;;5038308;28;20014;-81
2022/01/03 00:39:37;;;;;;;17.30;3.03;;;12.50;85.00;;;;;;5039423;28;20061;-82
2022/01/03 00:42:03;;;;;;;17.20;4.07;;;12.40;84.90;;;;;;5038377;28;20026;-81
2022/01/03 00:44:48;;;;;;;12.25;2.20;;;12.50;85.00;;;;;;5039490;28;20028;-81
2022/01/03 00:47:15;;;;;;;21.83;3.00;;;12.50;85.00;;;;;;5053546;28;20047;-81
2022/01/03 00:50:10;;;;;;;18.67;2.45;;;12.50;84.90;;;;;;5038366;28;20026;-81
2022/01/03 00:52:35;;;;;;;17.35;3.03;;;12.50;84.60;;;;;;5038370;28;20034;-82
2022/01/03 00:55:03;;;;;;;13.02;2.67;;;12.60;84.60;;;;;;5038450;28;20108;-81
2022/01/03 00:58:03;;;;;;;13.60;2.50;;;12.50;84.60;;;;;;5039190;28;20045;-81
2022/01/03 01:00:31;;;;;;;;;;;12.50;84.60;;;;;;5043012;28;20078;-81
2022/01/03 01:03:15;;;;;;;8.90;2.25;;;12.60;84.50;;;;;;5079402;28;20278;-81
2022/01/03 01:05:45;;;;;;;10.65;2.17;;;12.60;84.40;;;;;;5038164;28;20021;-81
2022/01/03 01:08:11;;;;;;;18.63;2.67;;;12.60;84.40;;;;;;5039744;28;20041;-81
2022/01/03 01:10:41;;;;;;;11.93;2.28;;;12.70;84.40;;;;;;5038352;28;20057;-81
2022/01/03 01:13:12;;;;;;;16.75;2.70;;;12.60;84.20;;;;;;5050520;28;20096;-81
2022/01/03 01:15:38;;;;;;;18.65;3.17;;;12.60;84.20;;;;;;5056521;28;20029;-81
2022/01/03 01:18:04;;;;;;;25.17;3.42;;;12.50;84.20;;;;;;5057847;28;20033;-81
2022/01/03 01:20:33;;;;;;;13.50;2.00;;;12.60;84.20;;;;;;5059228;28;20104;-81
2022/01/03 01:22:59;;;;;;;14.70;2.38;;;12.70;84.00;;;;;;5042018;28;20036;-81
2022/01/03 01:27:52;;;;;;;20.33;2.67;;;12.60;84.00;;;;;;5038073;28;20029;-82
2022/01/03 01:30:22;;;;;;;13.73;2.60;;;12.60;84.00;;;;;;5038162;28;20033;-81
2022/01/03 01:33:02;;;;;;;14.95;2.97;;;12.60;83.80;;;;;;5037694;28;20044;-81
2022/01/03 01:35:55;;;;;;;;;;;12.60;83.70;;;;;;5038608;28;20036;-81
2022/01/03 01:38:23;;;;;;;14.18;2.13;;;12.60;83.90;;;;;;5039208;28;19913;-82
2022/01/03 01:40:51;;;;;;;18.83;2.85;;;12.60;83.90;;;;;;5037651;28;20013;-81
2022/01/03 01:43:39;;;;;;;16.98;2.72;;;12.60;83.90;;;;;;5038919;28;20075;-81
2022/01/03 01:46:11;;;;;;;15.35;2.90;;;12.60;84.00;;;;;;5036063;28;20026;-82
2022/01/03 01:48:38;;;;;;;14.98;2.25;;;12.50;84.40;;;;;;5038672;28;20113;-81
2022/01/03 01:51:06;;;;;;;14.90;2.13;;;12.50;84.40;;;;;;5037254;28;20021;-81
2022/01/03 01:53:53;;;;;;;11.95;2.45;;;12.50;84.50;;;;;;5038788;28;20502;-82
2022/01/03 01:56:34;;;;;;;20.13;2.95;;;12.40;84.80;;;;;;5037221;28;20055;-81
2022/01/03 01:59:21;;;;;;;19.40;3.22;;;12.30;85.00;;;;;;5038285;28;20042;-82
2022/01/03 02:02:07;;;;;;;20.27;2.60;;;12.30;85.20;;;;;;5036873;28;20052;-82
2022/01/03 02:04:33;;;;;;;12.68;2.08;;;12.30;85.40;;;;;;5038266;28;20026;-81
2022/01/03 02:07:20;;;;;;;18.67;2.85;;;12.30;85.20;;;;;;5037286;28;20080;-81
2022/01/03 02:10:06;;;;;;;18.58;2.83;;;12.40;85.00;;;;;;5058834;28;20024;-81
2022/01/03 02:12:40;;;;;;;13.05;2.72;;;12.30;85.00;;;;;;5056908;28;20039;-81
2022/01/03 02:15:25;;;;;;;27.50;3.22;;;12.30;85.20;;;;;;5056994;28;20021;-81
2022/01/03 02:17:51;;;;;;;12.70;2.42;;;12.30;85.40;;;;;;5037414;28;20102;-81
2022/01/03 02:20:23;;;;;;;11.38;2.88;;;12.30;85.20;;;;;;5036838;28;20124;-81
2022/01/03 02:22:50;;;;;;;15.65;2.47;;;12.30;85.20;;;;;;5037938;28;20014;-81
2022/01/03 02:25:17;;;;;;;14.65;3.35;;;12.30;85.50;;;;;;5044369;28;20382;-81
2022/01/03 02:27:44;;;;;;;14.15;2.20;;;12.20;85.60;;;;;;5057998;28;20541;-81
2022/01/03 02:30:13;;;;;;;12.77;2.13;;;12.20;85.70;;;;;;5046205;28;20103;-81
2022/01/03 02:32:57;;;;;;;10.85;2.42;;;12.20;85.60;;;;;;5037513;28;20492;-81
2022/01/03 02:35:23;;;;;;;11.63;2.33;;;12.20;85.70;;;;;;5040803;28;20021;-81
2022/01/03 02:37:49;;;;;;;13.30;2.63;;;12.10;85.90;;;;;;5056359;28;20035;-81
2022/01/03 02:40:15;;;;;;;20.95;2.65;;;12.20;85.80;;;;;;5046730;28;20029;-81
2022/01/03 02:42:42;;;;;;;18.58;2.95;;;12.10;85.90;;;;;;5035701;28;20128;-81
2022/01/03 02:45:23;;;;;;;11.68;2.67;;;12.20;86.00;;;;;;5037738;28;20079;-81
2022/01/03 02:47:56;;;;;;;10.35;2.13;;;12.10;86.10;;;;;;5036476;28;20041;-81
2022/01/03 02:50:24;;;;;;;20.35;3.30;;;12.20;86.00;;;;;;5037223;28;20044;-81
2022/01/03 02:52:50;;;;;;;18.63;2.65;;;12.10;86.20;;;;;;5036145;28;20465;-81
2022/01/03 02:55:41;;;;;;;15.63;2.50;;;12.10;86.50;;;;;;5052160;28;20033;-81
2022/01/03 02:58:07;;;;;;;17.60;2.50;;;12.10;86.40;;;;;;5055859;28;20174;-81
2022/01/03 03:01:00;;;;;;;11.07;2.40;;;12.20;86.50;;;;;;5039874;28;20075;-81
2022/01/03 03:03:26;;;;;;;21.92;3.42;;;12.20;86.00;;;;;;5032956;28;20116;-81
2022/01/03 03:05:52;;;;;;;19.65;2.17;;;12.30;86.00;;;;;;5035965;28;20053;-82
2022/01/03 03:08:18;;;;;;;25.70;2.55;;;12.20;86.00;;;;;;5037380;28;20035;-81
2022/01/03 03:10:44;;;;;;;14.35;2.70;;;12.30;85.80;;;;;;5035961;28;20442;-81
2022/01/03 03:13:10;;;;;;;17.80;2.80;;;12.30;85.90;;;;;;5037202;28;20022;-81
2022/01/03 03:15:36;;;;;;;8.98;2.58;;;12.30;85.90;;;;;;5035822;28;20040;-81
2022/01/03 03:18:12;;;;;;;11.93;2.88;;;12.30;86.00;;;;;;5036121;28;20028;-81
2022/01/03 03:20:38;;;;;;;20.88;2.53;;;12.30;85.80;;;;;;5036070;28;20087;-80
2022/01/03 03:23:04;;;;;;;11.82;2.42;;;12.30;85.90;;;;;;5035956;28;20029;-80
2022/01/03 03:25:33;;;;;;;14.52;2.92;;;12.30;86.10;;;;;;5036743;28;20025;-80
2022/01/03 03:28:12;;;;;;;19.17;2.45;;;12.20;86.10;;;;;;5035633;28;20530;-80
2022/01/03 03:30:40;;;;;;;18.20;3.22;;;12.30;86.00;;;;;;5036784;28;20479;-80
2022/01/03 03:33:22;;;;;;;13.00;2.35;;;12.30;85.90;;;;;;5035461;28;20037;-82
2022/01/03 03:35:50;;;;;;;11.18;2.35;;;12.30;86.00;;;;;;5035719;28;20052;-80
2022/01/03 03:38:16;;;;;;;12.68;1.98;;;12.20;86.00;;;;;;5035343;28;20511;-80
2022/01/03 03:40:47;;;;;;;16.95;1.95;;;12.30;85.90;;;;;;5034689;28;20040;-80
2022/01/03 03:43:14;;;;;;;18.80;2.85;;;12.30;86.00;;;;;;5036228;28;20033;-80
2022/01/03 03:45:40;;;;;;;12.60;2.38;;;12.30;85.80;;;;;;5035212;28;20076;-80
2022/01/03 03:48:06;;;;;;;16.77;2.90;;;12.30;85.80;;;;;;5036584;28;20029;-80
2022/01/03 03:50:32;;;;;;;13.98;2.30;;;12.30;85.70;;;;;;5035382;28;20396;-80
2022/01/03 03:52:58;;;;;;;21.33;3.13;;;12.30;85.60;;;;;;5036325;28;20026;-80
2022/01/03 03:55:24;;;;;;;12.18;2.10;;;12.30;85.90;;;;;;5035253;28;20037;-80
2022/01/03 03:57:50;;;;;;;13.93;1.98;;;12.30;86.00;;;;;;5034005;28;20053;-80
2022/01/03 04:00:18;;;;;;;10.60;2.13;;;12.30;85.70;;;;;;5036054;28;20438;-80
2022/01/03 04:02:44;;;;;;;15.45;2.17;;;12.30;85.90;;;;;;5035151;28;20105;-80
2022/01/03 04:05:10;;;;;;;17.05;2.40;;;12.30;86.00;;;;;;5036493;28;20084;-80
2022/01/03 04:07:36;;;;;;;14.10;3.03;;;12.30;85.70;;;;;;5035140;28;20030;-80
2022/01/03 04:10:07;;;;;;;13.07;2.88;;;12.30;85.90;;;;;;5066562;28;20082;-80
2022/01/03 04:12:32;;;;;;;12.98;2.10;;;12.30;86.00;;;;;;5072639;28;20020;-80
2022/01/03 04:15:08;;;;;;;15.52;2.65;;;12.30;85.80;;;;;;5055511;28;20082;-79
2022/01/03 04:17:34;;;;;;;25.02;3.40;;;12.30;85.70;;;;;;5052866;28;20479;-80
2022/01/03 04:19:59;;;;;;;10.10;2.22;;;12.30;85.80;;;;;;5035161;28;20026;-80
2022/01/03 04:22:25;;;;;;;20.38;2.50;;;12.30;85.70;;;;;;5036263;28;20391;-80
2022/01/03 04:24:51;;;;;;;16.77;2.33;;;12.30;85.70;;;;;;5035008;28;20034;-80
2022/01/03 04:27:17;;;;;;;16.95;2.92;;;12.30;85.60;;;;;;5036170;28;20507;-80
2022/01/03 04:29:43;;;;;;;20.02;2.60;;;12.30;85.60;;;;;;5034898;28;20028;-79
2022/01/03 04:32:11;;;;;;;23.17;3.08;;;12.30;85.80;;;;;;5033561;28;20504;-79
2022/01/03 04:34:37;;;;;;;20.50;2.53;;;12.20;86.00;;;;;;5035377;28;20067;-80
2022/01/03 04:37:02;;;;;;;15.13;2.17;;;12.20;86.00;;;;;;5035155;28;20029;-80
2022/01/03 04:39:28;;;;;;;23.50;3.13;;;12.20;86.10;;;;;;5035744;28;20044;-80
2022/01/03 04:41:54;;;;;;;18.00;2.60;;;12.20;86.10;;;;;;5034781;28;20026;-80
2022/01/03 04:44:20;;;;;;;11.57;1.80;;;12.20;86.20;;;;;;5035898;28;20045;-80
2022/01/03 04:46:45;;;;;;;21.05;2.88;;;12.10;86.40;;;;;;5033274;28;20017;-80
2022/01/03 04:49:17;;;;;;;19.88;4.30;;;12.20;86.40;;;;;;5033848;28;20219;-80
2022/01/03 04:51:42;;;;;;;20.08;2.60;;;12.20;86.30;;;;;;5035153;28;20104;-80
2022/01/03 04:54:08;;;;;;;22.27;2.90;;;12.20;86.30;;;;;;5034611;28;20099;-80
2022/01/03 04:56:34;;;;;;;12.77;2.10;;;12.20;86.30;;;;;;5036528;28;20158;-80
2022/01/03 04:59:00;;;;;;;15.30;3.00;;;12.20;86.40;;;;;;5033122;28;20523;-80
2022/01/03 05:01:26;;;;;;;18.27;3.35;;;12.20;86.30;;;;;;5035393;28;20428;-80
2022/01/03 05:03:52;;;;;;;18.67;2.67;;;12.30;86.10;;;;;;5034633;28;20029;-80
2022/01/03 05:06:22;;;;;;;17.63;2.38;;;12.30;86.20;;;;;;5037845;28;20017;-80
2022/01/03 05:08:48;;;;;;;13.93;2.72;;;12.30;86.10;;;;;;5060900;28;20100;-80
2022/01/03 05:11:13;;;;;;;20.20;2.40;;;12.30;86.00;;;;;;5078214;28;20529;-80
2022/01/03 05:13:40;;;;;;;14.48;2.67;;;12.20;86.30;;;;;;5074222;28;20077;-80
2022/01/03 05:16:06;;;;;;;18.58;2.88;;;12.30;86.40;;;;;;5037943;28;20029;-80
2022/01/03 05:18:32;;;;;;;19.73;3.13;;;12.30;86.20;;;;;;5037619;28;20051;-80
2022/01/03 05:20:57;;;;;;;10.25;2.17;;;12.30;86.10;;;;;;5053328;28;20030;-80
2022/01/03 05:23:26;;;;;;;17.27;2.80;;;12.30;86.20;;;;;;5038475;28;20032;-80
2022/01/03 05:25:52;;;;;;;14.77;2.33;;;12.20;86.40;;;;;;5055466;28;20055;-80
2022/01/03 05:28:17;;;;;;;9.55;2.78;;;12.20;86.80;;;;;;5057721;28;20104;-80
2022/01/03 05:30:43;;;;;;;10.32;2.10;;;12.20;86.80;;;;;;5059002;28;20024;-80
2022/01/03 05:33:09;;;;;;;23.83;2.67;;;12.20;86.80;;;;;;5056463;28;20111;-80
2022/01/03 05:35:35;;;;;;;8.55;2.35;;;12.20;86.90;;;;;;5038754;28;20100;-80
2022/01/03 05:38:01;;;;;;;12.48;2.60;;;12.20;86.80;;;;;;5037675;28;20057;-80
2022/01/03 05:40:37;;;;;;;;;;;;;;;;;;;;;
2022/01/03 05:43:03;;;;;;;18.38;2.55;;;12.30;86.70;;;;;;5056091;28;20530;-81
2022/01/03 05:45:29;;;;;;;12.82;2.40;;;12.30;86.50;;;;;;5043129;28;20128;-85
2022/01/03 05:47:55;;;;;;;20.90;2.92;;;12.30;86.50;;;;;;5040052;28;20605;-83
2022/01/03 05:50:21;;;;;;;19.88;2.75;;;12.30;86.20;;;;;;5037411;28;20025;-86
2022/01/03 05:57:38;;;;;;;;;;;;;;;;;;;;;
2022/01/03 06:00:06;;;;;;;11.70;2.47;;;12.00;87.10;;;;;;5072314;28;20029;-85
2022/01/03 06:02:37;;;;;;;6.45;2.15;;;12.10;87.20;;;;;;5055341;28;20045;-83
2022/01/03 06:05:31;;;;;;;14.88;2.65;;;12.10;87.10;;;;;;5052661;28;20125;-85
2022/01/03 06:07:57;;;;;;;13.43;2.10;;;12.30;87.00;;;;;;5052802;28;20025;-86
2022/01/03 06:10:25;;;;;;;22.88;3.28;;;12.30;86.90;;;;;;5057864;28;20035;-85
2022/01/03 06:12:51;;;;;;;15.23;2.72;;;12.30;86.60;;;;;;5072096;28;20577;-80
2022/01/03 06:15:17;;;;;;;18.00;2.85;;;12.30;86.70;;;;;;5074301;28;20033;-78
2022/01/03 06:17:43;;;;;;;10.23;2.35;;;12.30;86.50;;;;;;5070971;28;20017;-87
2022/01/03 06:20:12;;;;;;;15.52;2.70;;;12.40;86.50;;;;;;5070039;28;20445;-90
2022/01/03 06:22:40;;;;;;;24.65;2.67;;;12.40;86.40;;;;;;5069926;28;20021;-80
2022/01/03 06:25:06;;;;;;;18.52;3.10;;;12.40;86.40;;;;;;5063692;28;20020;-81
2022/01/03 06:27:32;;;;;;;9.52;2.35;;;12.30;86.30;;;;;;5067903;28;20040;-81
2022/01/03 06:29:58;;;;;;;15.85;2.70;;;12.30;86.20;;;;;;5068204;28;20032;-81
2022/01/03 06:32:23;;;;;;;14.70;2.88;;;12.40;86.40;;;;;;5070304;28;20060;-81
2022/01/03 06:34:51;;;;;;;11.02;2.40;;;12.40;86.40;;;;;;5052479;28;20059;-81
2022/01/03 06:37:22;;;;;;;18.70;2.60;;;12.40;86.30;;;;;;5071574;28;20021;-81
2022/01/03 06:39:48;;;;;;;11.50;2.58;;;12.40;86.30;;;;;;5069714;28;20517;-81
2022/01/03 06:42:14;;;;;;;19.15;2.50;;;12.30;86.50;;;;;;5070639;28;20021;-80
2022/01/03 06:44:40;;;;;;;13.18;2.33;;;12.40;86.50;;;;;;5069638;28;20027;-80
2022/01/03 06:47:05;;;;;;;18.23;3.75;;;12.40;86.40;;;;;;5070344;28;20031;-80
2022/01/03 06:49:31;;;;;;;14.25;2.58;;;12.50;86.20;;;;;;5060818;28;20077;-78
2022/01/03 06:51:57;;;;;;;14.85;2.80;;;12.40;86.20;;;;;;5055011;28;20028;-80
2022/01/03 06:54:22;;;;;;;15.18;3.20;;;12.40;86.30;;;;;;5071104;28;20487;-78
2022/01/03 06:56:48;;;;;;;16.42;2.97;;;12.40;86.40;;;;;;5068743;28;20124;-78
2022/01/03 06:59:14;;;;;;;14.20;2.60;;;12.30;86.50;;;;;;5068690;28;20451;-78
2022/01/03 07:01:39;;;;;;;20.55;3.50;;;12.40;86.60;;;;;;5070277;28;20059;-79
2022/01/03 07:04:05;;;;;;;8.63;2.38;;;12.30;86.50;;;;;;5071087;28;20025;-80
2022/01/03 07:06:32;;;;;;;17.75;2.78;;;12.40;86.60;;;;;;5066598;28;20407;-79
2022/01/03 07:08:58;;;;;;;14.52;3.67;;;12.50;86.50;;;;;;5059707;28;20049;-79
2022/01/03 07:11:27;;;;;;;8.23;1.95;;;12.40;86.40;;;;;;5057594;28;20029;-79
2022/01/03 07:14:04;;;;;;;17.23;2.88;;;12.30;86.70;;;;;;5057845;28;20029;-79
2022/01/03 07:19:14;;;;;;;17.52;2.67;;;12.30;87.00;;;;;;5037779;28;20040;-79
2022/01/03 07:21:40;;;;;;;14.63;3.47;;;12.30;87.10;;;;;;5036848;28;20022;-79
2022/01/03 07:24:05;;;;;;;9.55;3.10;;;12.30;87.20;;;;;;5037092;28;20033;-79
2022/01/03 07:26:31;;;;;;;13.70;2.28;;;12.30;87.20;;;;;;5035649;28;20116;-79
2022/01/03 07:28:57;;;;;;;16.38;2.88;;;12.20;87.50;;;;;;5037343;28;20044;-79
2022/01/03 07:31:23;;;;;;;20.60;2.72;;;12.30;87.30;;;;;;5037013;28;20701;-79
2022/01/03 07:33:48;;;;;;;12.60;2.30;;;12.30;87.20;;;;;;5037290;28;20036;-79
2022/01/03 07:36:14;;;;;;;25.38;3.30;;;12.30;87.30;;;;;;5037156;28;20777;-79
2022/01/03 07:38:40;;;;;;;15.95;2.33;;;12.40;87.20;;;;;;5037434;28;20026;-79
2022/01/03 07:41:08;;;;;;;19.50;2.90;;;12.40;87.20;;;;;;5037418;28;20028;-79
2022/01/03 07:43:34;;;;;;;18.45;3.63;;;12.50;87.00;;;;;;5044932;28;20052;-79
2022/01/03 07:46:02;;;;;;;15.02;2.45;;;12.50;86.90;;;;;;5057344;28;20028;-79
2022/01/03 07:48:27;;;;;;;14.43;2.85;;;12.50;86.70;;;;;;5041033;28;20403;-79
2022/01/03 07:50:53;;;;;;;18.67;3.22;;;12.50;86.60;;;;;;5036926;28;20037;-79
2022/01/03 07:53:19;;;;;;;14.90;2.58;;;12.50;86.80;;;;;;5037504;28;20041;-79
2022/01/03 07:55:44;;;;;;;14.18;2.67;;;12.50;86.90;;;;;;5036951;28;20041;-79
2022/01/03 07:58:14;;;;;;;19.98;2.72;;;12.50;86.90;;;;;;5037226;28;20564;-79
2022/01/03 08:00:39;;;;;;;15.18;3.38;;;12.50;86.90;;;;;;5036749;28;20108;-79
2022/01/03 08:03:05;;;;;;;26.90;3.10;;;12.40;87.00;;;;;;5052138;28;20072;-79
2022/01/03 08:05:31;;;;;;;19.13;2.22;;;12.40;87.20;;;;;;5035537;28;20111;-79
2022/01/03 08:07:56;;;;;;;9.60;2.33;;;12.40;87.30;;;;;;5036962;28;20052;-79
2022/01/03 08:10:23;;;;;;;13.90;3.08;;;12.40;87.30;;;;;;5048909;28;20028;-79
2022/01/03 08:12:49;;;;;;;18.05;2.60;;;12.50;87.20;;;;;;5036598;28;20078;-79
2022/01/03 08:15:14;;;;;;;13.80;3.03;;;12.50;87.30;;;;;;5056055;28;20032;-79
2022/01/03 08:17:44;;;;;;;7.78;1.80;;;12.40;87.40;;;;;;5047722;28;20549;-79
2022/01/03 08:20:10;;;;;;;10.03;2.43;;;12.40;87.50;;;;;;5035834;28;20080;-79
2022/01/03 08:22:35;;;;;;;22.65;3.03;;;12.40;87.70;;;;;;5036485;28;20033;-79
2022/01/03 08:25:01;;;;;;;12.07;2.70;;;12.40;87.50;;;;;;5036639;28;20033;-79
2022/01/03 08:27:27;;;;;;;16.98;2.92;;;12.50;87.30;;;;;;5036492;28;20475;-79
2022/01/03 08:29:52;;;;;;;14.90;2.67;;;12.50;87.50;;;;;;5035073;28;20472;-79
2022/01/03 08:32:18;;;;;;;19.23;3.10;;;12.50;87.40;;;;;;5036398;28;20032;-79
2022/01/03 08:34:44;;;;;;;16.10;3.17;;;12.60;87.30;;;;;;5035172;28;20029;-79
2022/01/03 08:37:09;;;;;;;12.82;2.13;;;12.70;87.00;;;;;;5036216;28;20048;-79
2022/01/03 08:39:35;;;;;;;13.48;2.60;;;12.70;87.20;;;;;;5036254;28;20037;-79
2022/01/03 08:42:01;;;;;;;13.57;2.35;;;12.80;87.00;;;;;;5036086;28;20589;-79
2022/01/03 08:44:27;;;;;;;19.13;2.63;;;12.80;86.70;;;;;;5036330;28;20056;-79
2022/01/03 08:46:52;;;;;;;12.20;2.20;;;12.80;86.70;;;;;;5036035;28;20488;-79
2022/01/03 08:49:18;;;;;;;8.20;1.95;;;12.80;86.70;;;;;;5036254;28;20130;-79
2022/01/03 08:51:45;;;;;;;20.40;2.25;;;12.70;86.70;;;;;;5035960;28;20025;-79
2022/01/03 08:54:10;;;;;;;18.50;2.50;;;12.80;86.70;;;;;;5036008;28;20504;-79
2022/01/03 08:56:38;;;;;;;12.18;3.00;;;12.90;86.60;;;;;;5033943;28;20041;-79
2022/01/03 08:59:04;;;;;;;7.65;1.90;;;12.90;86.60;;;;;;5035898;28;20068;-79
2022/01/03 09:01:30;;;;;;;13.75;2.10;;;12.90;86.30;;;;;;5039997;28;20032;-79
2022/01/03 09:03:56;;;;;;;14.45;2.58;;;13.00;86.20;;;;;;5055725;28;20021;-79
2022/01/03 09:06:22;;;;;;;14.68;2.40;;;13.00;86.40;;;;;;5055745;28;20572;-79
2022/01/03 09:08:48;;;;;;;14.30;3.03;;;13.00;86.20;;;;;;5054905;28;20056;-79
2022/01/03 09:11:14;;;;;;;13.68;3.13;;;13.10;86.00;;;;;;5075599;28;20028;-79
2022/01/03 09:13:40;;;;;;;14.18;3.03;;;13.10;85.70;;;;;;5074268;28;20107;-79
2022/01/03 09:16:07;;;;;;;11.93;2.72;;;13.00;86.10;;;;;;5075454;28;20526;-79
2022/01/03 09:18:35;;;;;;;17.98;3.50;;;13.00;86.00;;;;;;5043133;28;20033;-79
2022/01/03 09:21:00;;;;;;;14.68;2.42;;;13.10;85.90;;;;;;5035555;28;20707;-78
2022/01/03 09:23:31;;;;;;;12.80;2.00;;;13.20;85.90;;;;;;5035329;28;20033;-79
2022/01/03 09:28:53;;;;;;;11.80;2.53;;;13.30;85.40;;;;;;5035624;28;20411;-79
2022/01/03 09:31:24;;;;;;;15.02;2.25;;;13.40;85.10;;;;;;5035030;28;20510;-79
2022/01/03 09:33:54;;;;;;;16.25;1.85;;;13.50;84.90;;;;;;5035360;28;20025;-79
2022/01/03 09:36:20;;;;;;;7.63;1.45;;;13.40;84.80;;;;;;5035457;28;20484;-79
2022/01/03 09:38:45;;;;;;;17.67;2.13;;;13.40;84.80;;;;;;5033924;28;20049;-79
2022/01/03 09:41:13;;;;;;;11.95;2.08;;;13.30;84.80;;;;;;5035228;28;20780;-79
2022/01/03 09:44:05;;;;;;;17.25;2.50;;;13.40;84.70;;;;;;5035195;28;20029;-79
2022/01/03 09:46:37;;;;;;;16.17;2.58;;;13.50;84.70;;;;;;5034075;28;20040;-79
2022/01/03 09:49:08;;;;;;;19.75;3.08;;;13.50;84.60;;;;;;5035236;28;20030;-79
2022/01/03 09:51:34;;;;;;;10.38;2.05;;;13.60;84.30;;;;;;5035229;28;20466;-79
2022/01/03 09:54:04;;;;;;;9.75;2.65;;;13.60;84.20;;;;;;5034955;28;20029;-79
2022/01/03 09:56:32;;;;;;;13.73;3.03;;;13.60;84.10;;;;;;5034960;28;20148;-79
2022/01/03 09:59:00;;;;;;;17.38;2.63;;;13.50;83.80;;;;;;5035113;28;20517;-79
2022/01/03 10:01:26;;;;;;;11.55;2.78;;;13.60;84.10;;;;;;5035214;28;20044;-82
2022/01/03 10:03:52;;;;;;;9.18;2.00;;;13.70;83.90;;;;;;5034940;28;20056;-79
2022/01/03 10:06:19;;;;;;;15.27;2.20;;;13.70;83.80;;;;;;5034759;28;20025;-79
2022/01/03 10:08:46;;;;;;;10.57;1.85;;;13.60;83.80;;;;;;5044055;28;20394;-79
2022/01/03 10:11:13;;;;;;;11.85;2.05;;;13.60;83.90;;;;;;5073562;28;20029;-79
2022/01/03 10:13:39;;;;;;;13.35;2.50;;;13.60;84.00;;;;;;5074990;28;20067;-79
2022/01/03 10:16:06;;;;;;;14.07;2.58;;;13.70;84.00;;;;;;5049245;28;20033;-79
2022/01/03 10:18:33;;;;;;;7.97;2.15;;;13.70;83.80;;;;;;5034921;28;20055;-79
2022/01/03 10:21:00;;;;;;;12.63;2.30;;;13.70;83.70;;;;;;5034942;28;20024;-79
2022/01/03 10:23:26;;;;;;;15.63;2.58;;;13.80;83.60;;;;;;5034926;28;20024;-79
2022/01/03 10:25:52;;;;;;;16.10;2.30;;;13.70;83.60;;;;;;5034931;28;20116;-79
2022/01/03 10:28:25;;;;;;;11.73;3.08;;;13.80;83.40;;;;;;5034855;28;20112;-79
2022/01/03 10:30:52;;;;;;;14.85;2.92;;;13.90;83.20;;;;;;5033278;28;20079;-79
2022/01/03 10:33:20;;;;;;;12.18;2.20;;;13.90;82.80;;;;;;5034749;28;20025;-79
2022/01/03 10:35:51;;;;;;;10.60;1.95;;;14.00;82.70;;;;;;5034560;28;20042;-79
2022/01/03 10:38:40;;;;;;;11.43;1.98;;;14.00;83.00;;;;;;5034914;28;20025;-79
2022/01/03 10:41:15;;;;;;;11.48;2.22;;;13.90;82.70;;;;;;5034824;28;20029;-79
2022/01/03 10:43:44;;;;;;;12.30;2.17;;;13.90;82.70;;;;;;5038051;28;20021;-78
2022/01/03 10:46:30;;;;;;;11.30;2.08;;;13.80;82.80;;;;;;5038482;28;20028;-79
2022/01/03 10:49:13;;;;;;;10.13;2.65;;;13.80;82.40;;;;;;5038524;28;20092;-79
2022/01/03 10:51:39;;;;;;;14.13;2.28;;;13.70;82.70;;;;;;5038385;28;20033;-79
2022/01/03 10:54:23;;;;;;;14.23;2.13;;;13.70;82.80;;;;;;5038047;28;20033;-79
2022/01/03 10:56:50;;;;;;;15.27;2.33;;;13.80;82.90;;;;;;5037830;28;20069;-79
2022/01/03 10:59:21;;;;;;;19.20;2.78;;;13.80;82.80;;;;;;5038233;28;20025;-79
2022/01/03 11:01:59;;;;;;;16.90;2.63;;;13.80;83.00;;;;;;5038225;28;20021;-79
2022/01/03 11:04:28;;;;;;;8.40;2.03;;;13.80;83.20;;;;;;5038054;28;20345;-79
2022/01/03 11:13:04;;;;;;;7.60;2.00;;;13.80;83.60;;;;;;5078080;28;20070;-79
2022/01/03 11:15:30;;;;;;;10.43;2.33;;;13.80;83.50;;;;;;5077268;28;20029;-79
2022/01/03 11:18:19;;;;;;;8.15;1.77;;;13.80;83.40;;;;;;5056981;28;20029;-79
2022/01/03 11:20:48;;;;;;;17.00;2.05;;;13.90;83.50;;;;;;5056593;28;20056;-79
2022/01/03 11:23:20;;;;;;;17.03;2.20;;;13.80;83.70;;;;;;5037802;28;20021;-79
2022/01/03 11:25:45;;;;;;;8.68;2.13;;;13.90;84.10;;;;;;5036198;28;20036;-80
2022/01/03 11:28:11;;;;;;;8.88;2.45;;;13.90;84.10;;;;;;5036434;28;20483;-79
2022/01/03 11:30:39;;;;;;;17.73;2.80;;;13.80;84.20;;;;;;5037557;28;20574;-79
2022/01/03 11:33:07;;;;;;;6.78;2.20;;;13.80;84.10;;;;;;5036130;28;20029;-79
2022/01/03 11:35:32;;;;;;;6.03;1.70;;;13.80;84.30;;;;;;5045541;28;20040;-80
2022/01/03 11:38:00;;;;;;;12.38;2.55;;;13.80;84.50;;;;;;5036298;28;20403;-79
2022/01/03 11:40:27;;;;;;;8.55;1.85;;;13.90;84.60;;;;;;5037611;28;20468;-79
2022/01/03 11:42:53;;;;;;;14.38;2.47;;;13.90;84.50;;;;;;5037166;28;20021;-79
2022/01/03 11:45:19;;;;;;;11.25;2.20;;;14.00;84.60;;;;;;5036955;28;20079;-79
2022/01/03 11:47:45;;;;;;;9.02;1.90;;;14.00;84.50;;;;;;5037413;28;20037;-79
2022/01/03 11:50:11;;;;;;;3.28;1.42;;;14.10;84.60;;;;;;5037308;28;20510;-75
2022/01/03 11:52:44;;;;;;;10.05;1.55;;;14.10;84.40;;;;;;5037242;28;20108;-80
2022/01/03 11:55:12;;;;;;;9.70;1.85;;;14.00;84.50;;;;;;5036772;28;20603;-79
2022/01/03 12:06:00;;;;;;;6.80;1.98;;;13.90;85.70;;;;;;5037115;28;20083;-81
2022/01/03 12:08:33;;;;;;;6.68;2.05;;;13.90;85.40;;;;;;5041372;28;20026;-81
2022/01/03 12:11:01;;;;;;;10.02;1.73;;;13.90;85.80;;;;;;5076874;28;20070;-81
2022/01/03 12:13:48;;;;;;;5.65;1.42;;;13.90;85.90;;;;;;5043997;28;20102;-81
2022/01/03 12:16:14;;;;;;;9.70;1.85;;;13.90;86.10;;;;;;5036627;28;20431;-80
2022/01/03 12:18:57;;;;;;;4.18;1.50;;;14.00;85.90;;;;;;5036566;28;20029;-79
2022/01/03 12:21:51;;;;;;;5.63;1.60;;;14.00;85.90;;;;;;5035035;28;20025;-80
2022/01/03 12:24:29;;;;;;;11.38;2.17;;;13.80;86.60;;;;;;5036647;28;20484;-78
2022/01/03 12:27:13;;;;;;;7.90;1.65;;;13.80;87.00;;;;;;5036489;28;20036;-77
2022/01/03 12:29:53;;;;;;;6.90;1.65;;;13.90;86.90;;;;;;5036584;28;20033;-80
2022/01/03 12:32:26;;;;;;;7.63;2.03;;;13.80;86.90;;;;;;5036512;28;20079;-81
2022/01/03 12:38:02;;;;;;;7.05;1.63;;;13.80;87.00;;;;;;5047857;28;20086;-77
2022/01/03 12:40:31;;;;;;;9.85;1.52;;;13.70;86.30;;;;;;5052860;28;20407;-81
2022/01/03 12:42:59;;;;;;;4.97;1.27;;;13.70;86.40;;;;;;5056132;28;20103;-80
2022/01/03 12:45:33;;;;;;;3.15;0.90;;;13.70;86.50;;;;;;5050838;28;20179;-79
2022/01/03 12:48:11;;;;;;;5.10;1.10;;;13.70;86.30;;;;;;5036293;28;20052;-77
2022/01/03 12:50:42;;;;;;;1.30;0.68;;;13.60;86.30;;;;;;5036352;28;20071;-79
2022/01/03 12:53:09;;;;;;;2.60;0.85;;;13.50;86.50;;;;;;5036197;28;20132;-80
2022/01/03 12:55:38;;;;;;;1.60;0.85;;;13.60;86.20;;;;;;5034500;28;20496;-80
2022/01/03 12:58:23;;;;;;;10.13;1.48;;;13.60;85.90;;;;;;5035971;28;20073;-81
2022/01/03 13:00:52;;;;;;;3.83;1.30;;;13.60;86.20;;;;;;5035600;28;21039;-82
2022/01/03 13:03:23;;;;;;;3.67;1.30;;;13.60;86.00;;;;;;5036066;28;20017;-79
2022/01/03 13:06:11;;;;;;;4.13;1.30;;;13.70;86.10;;;;;;5052733;28;20043;-81
2022/01/03 13:08:39;;;;;;;4.35;1.20;;;13.60;85.90;;;;;;5059313;28;20441;-81
2022/01/03 13:11:16;;;;;;;4.00;1.63;;;13.50;86.40;;;;;;5075822;28;20490;-82
2022/01/03 13:13:44;;;;;;;3.00;1.10;;;13.50;86.80;;;;;;5064017;28;20056;-82
2022/01/03 13:16:17;;;;;;;1.58;0.75;;;13.50;86.70;;;;;;5035744;28;20022;-81
2022/01/03 13:18:53;;;;;;;4.90;1.08;;;13.50;86.60;;;;;;5034429;28;20071;-82
2022/01/03 13:21:21;;;;;;;4.85;1.50;;;13.50;87.20;;;;;;5035623;28;20055;-82
2022/01/03 13:23:55;;;;;;;3.28;0.93;;;13.60;87.10;;;;;;5035789;28;20029;-80